sensor_id;sensor_type;location;lat;lon;timestamp;temperature;humidity
47434;SHT31;33184;48.774;8.918;2022-08-23T00:05:07;18.13;60.91
47434;SHT31;33184;48.774;8.918;2022-08-23T00:10:28;18.03;61.15
47434;SHT31;33184;48.774;8.918;2022-08-23T00:15:49;17.79;61.88
47434;SHT31;33184;48.774;8.918;2022-08-23T00:21:10;17.55;62.22
47434;SHT31;33184;48.774;8.918;2022-08-23T00:26:52;17.42;63.34
47434;SHT31;33184;48.774;8.918;2022-08-23T00:32:27;17.34;63.16
47434;SHT31;33184;48.774;8.918;2022-08-23T00:37:48;17.34;62.75
47434;SHT31;33184;48.774;8.918;2022-08-23T00:43:10;17.26;62.62
47434;SHT31;33184;48.774;8.918;2022-08-23T00:48:50;17.23;63.42
47434;SHT31;33184;48.774;8.918;2022-08-23T00:54:11;17.11;63.86
47434;SHT31;33184;48.774;8.918;2022-08-23T00:59:33;16.94;65.12
47434;SHT31;33184;48.774;8.918;2022-08-23T01:04:57;16.99;64.98
47434;SHT31;33184;48.774;8.918;2022-08-23T01:10:31;17.07;63.91
47434;SHT31;33184;48.774;8.918;2022-08-23T01:15:56;17.13;63.94
47434;SHT31;33184;48.774;8.918;2022-08-23T01:21:25;17.04;64.34
47434;SHT31;33184;48.774;8.918;2022-08-23T01:26:48;16.94;64.49
47434;SHT31;33184;48.774;8.918;2022-08-23T01:32:11;16.74;65.24
47434;SHT31;33184;48.774;8.918;2022-08-23T01:37:32;16.53;65.61
47434;SHT31;33184;48.774;8.918;2022-08-23T01:42:55;16.48;65.83
47434;SHT31;33184;48.774;8.918;2022-08-23T01:48:16;16.51;65.21
47434;SHT31;33184;48.774;8.918;2022-08-23T01:53:37;16.51;64.96
47434;SHT31;33184;48.774;8.918;2022-08-23T01:58:59;16.51;65.62
47434;SHT31;33184;48.774;8.918;2022-08-23T02:04:24;16.52;65.59
47434;SHT31;33184;48.774;8.918;2022-08-23T02:09:45;16.35;66.34
47434;SHT31;33184;48.774;8.918;2022-08-23T02:15:06;16.26;66.40
47434;SHT31;33184;48.774;8.918;2022-08-23T02:20:28;16.33;66.02
47434;SHT31;33184;48.774;8.918;2022-08-23T02:25:49;16.31;66.23
47434;SHT31;33184;48.774;8.918;2022-08-23T02:31:12;16.32;65.73
47434;SHT31;33184;48.774;8.918;2022-08-23T02:36:33;16.22;65.64
47434;SHT31;33184;48.774;8.918;2022-08-23T02:41:54;16.15;66.29
47434;SHT31;33184;48.774;8.918;2022-08-23T02:47:15;16.02;67.11
47434;SHT31;33184;48.774;8.918;2022-08-23T02:52:45;15.91;67.50
47434;SHT31;33184;48.774;8.918;2022-08-23T02:58:06;15.87;67.71
47434;SHT31;33184;48.774;8.918;2022-08-23T03:03:28;15.68;67.63
47434;SHT31;33184;48.774;8.918;2022-08-23T03:08:49;15.57;67.83
47434;SHT31;33184;48.774;8.918;2022-08-23T03:14:10;15.42;68.51
47434;SHT31;33184;48.774;8.918;2022-08-23T03:19:30;15.36;68.10
47434;SHT31;33184;48.774;8.918;2022-08-23T03:24:51;15.46;68.40
47434;SHT31;33184;48.774;8.918;2022-08-23T03:30:13;15.58;67.93
47434;SHT31;33184;48.774;8.918;2022-08-23T03:35:34;15.67;67.65
47434;SHT31;33184;48.774;8.918;2022-08-23T03:40:56;15.70;67.93
47434;SHT31;33184;48.774;8.918;2022-08-23T03:46:18;15.73;67.43
47434;SHT31;33184;48.774;8.918;2022-08-23T03:51:50;15.66;67.01
47434;SHT31;33184;48.774;8.918;2022-08-23T03:57:11;15.61;68.02
47434;SHT31;33184;48.774;8.918;2022-08-23T04:02:32;15.32;68.14
47434;SHT31;33184;48.774;8.918;2022-08-23T04:07:53;15.19;68.85
47434;SHT31;33184;48.774;8.918;2022-08-23T04:13:17;15.13;69.03
47434;SHT31;33184;48.774;8.918;2022-08-23T04:18:38;15.15;69.11
47434;SHT31;33184;48.774;8.918;2022-08-23T04:24:00;15.10;68.53
47434;SHT31;33184;48.774;8.918;2022-08-23T04:29:21;15.09;69.04
47434;SHT31;33184;48.774;8.918;2022-08-23T04:34:42;15.07;69.28
47434;SHT31;33184;48.774;8.918;2022-08-23T04:40:04;15.00;69.03
47434;SHT31;33184;48.774;8.918;2022-08-23T04:45:45;15.07;69.95
47434;SHT31;33184;48.774;8.918;2022-08-23T04:51:18;15.20;69.71
47434;SHT31;33184;48.774;8.918;2022-08-23T04:56:39;15.29;69.53
47434;SHT31;33184;48.774;8.918;2022-08-23T05:02:01;15.32;69.72
47434;SHT31;33184;48.774;8.918;2022-08-23T05:07:22;15.40;68.93
47434;SHT31;33184;48.774;8.918;2022-08-23T05:12:42;15.44;68.93
47434;SHT31;33184;48.774;8.918;2022-08-23T05:18:04;15.46;69.20
47434;SHT31;33184;48.774;8.918;2022-08-23T05:23:26;15.68;69.23
47434;SHT31;33184;48.774;8.918;2022-08-23T05:28:54;15.77;68.42
47434;SHT31;33184;48.774;8.918;2022-08-23T05:34:20;15.81;68.32
47434;SHT31;33184;48.774;8.918;2022-08-23T05:39:45;15.88;68.32
47434;SHT31;33184;48.774;8.918;2022-08-23T05:45:06;16.00;68.18
47434;SHT31;33184;48.774;8.918;2022-08-23T05:50:28;16.14;68.44
47434;SHT31;33184;48.774;8.918;2022-08-23T05:55:50;16.31;68.48
47434;SHT31;33184;48.774;8.918;2022-08-23T06:01:14;16.52;67.62
47434;SHT31;33184;48.774;8.918;2022-08-23T06:06:36;16.67;67.26
47434;SHT31;33184;48.774;8.918;2022-08-23T06:11:58;16.90;66.94
47434;SHT31;33184;48.774;8.918;2022-08-23T06:17:19;17.06;66.56
47434;SHT31;33184;48.774;8.918;2022-08-23T06:22:40;17.17;66.33
47434;SHT31;33184;48.774;8.918;2022-08-23T06:28:01;17.37;66.03
47434;SHT31;33184;48.774;8.918;2022-08-23T06:33:23;17.51;65.91
47434;SHT31;33184;48.774;8.918;2022-08-23T06:39:08;17.71;65.26
47434;SHT31;33184;48.774;8.918;2022-08-23T06:44:49;17.89;64.60
47434;SHT31;33184;48.774;8.918;2022-08-23T06:50:12;18.12;64.16
47434;SHT31;33184;48.774;8.918;2022-08-23T06:55:51;18.27;63.64
47434;SHT31;33184;48.774;8.918;2022-08-23T07:07:09;18.80;62.78
47434;SHT31;33184;48.774;8.918;2022-08-23T07:12:30;19.06;62.07
47434;SHT31;33184;48.774;8.918;2022-08-23T07:17:50;19.31;61.19
47434;SHT31;33184;48.774;8.918;2022-08-23T07:23:11;19.66;59.59
47434;SHT31;33184;48.774;8.918;2022-08-23T07:28:32;20.07;56.99
47434;SHT31;33184;48.774;8.918;2022-08-23T07:33:55;20.67;53.26
47434;SHT31;33184;48.774;8.918;2022-08-23T07:39:17;21.23;51.35
47434;SHT31;33184;48.774;8.918;2022-08-23T07:44:38;21.51;49.78
47434;SHT31;33184;48.774;8.918;2022-08-23T07:49:59;21.88;47.76
47434;SHT31;33184;48.774;8.918;2022-08-23T07:55:21;22.08;47.32
47434;SHT31;33184;48.774;8.918;2022-08-23T08:00:47;22.25;46.11
47434;SHT31;33184;48.774;8.918;2022-08-23T08:06:34;22.49;44.39
47434;SHT31;33184;48.774;8.918;2022-08-23T08:11:56;22.68;44.15
47434;SHT31;33184;48.774;8.918;2022-08-23T08:17:21;22.94;42.98
47434;SHT31;33184;48.774;8.918;2022-08-23T08:23:00;23.03;43.53
47434;SHT31;33184;48.774;8.918;2022-08-23T08:28:50;23.14;43.99
47434;SHT31;33184;48.774;8.918;2022-08-23T08:34:12;23.22;43.90
47434;SHT31;33184;48.774;8.918;2022-08-23T08:39:33;23.37;44.32
47434;SHT31;33184;48.774;8.918;2022-08-23T08:45:05;23.67;42.35
47434;SHT31;33184;48.774;8.918;2022-08-23T08:50:35;23.62;43.22
47434;SHT31;33184;48.774;8.918;2022-08-23T08:56:01;23.94;42.42
47434;SHT31;33184;48.774;8.918;2022-08-23T09:01:28;24.04;41.11
47434;SHT31;33184;48.774;8.918;2022-08-23T09:07:04;24.23;40.99
47434;SHT31;33184;48.774;8.918;2022-08-23T09:12:53;24.36;41.06
47434;SHT31;33184;48.774;8.918;2022-08-23T09:18:17;24.39;40.37
47434;SHT31;33184;48.774;8.918;2022-08-23T09:23:43;24.64;38.10
47434;SHT31;33184;48.774;8.918;2022-08-23T09:29:21;24.86;38.52
47434;SHT31;33184;48.774;8.918;2022-08-23T09:34:43;24.84;38.43
47434;SHT31;33184;48.774;8.918;2022-08-23T09:40:17;25.30;37.43
47434;SHT31;33184;48.774;8.918;2022-08-23T09:51:17;25.14;38.22
47434;SHT31;33184;48.774;8.918;2022-08-23T09:56:52;25.37;36.29
47434;SHT31;33184;48.774;8.918;2022-08-23T10:07:43;25.68;35.09
47434;SHT31;33184;48.774;8.918;2022-08-23T10:13:13;26.10;35.24
47434;SHT31;33184;48.774;8.918;2022-08-23T10:30:12;26.32;33.96
47434;SHT31;33184;48.774;8.918;2022-08-23T10:35:51;26.15;34.39
47434;SHT31;33184;48.774;8.918;2022-08-23T10:52:39;27.22;32.18
47434;SHT31;33184;48.774;8.918;2022-08-23T10:58:15;27.67;32.90
47434;SHT31;33184;48.774;8.918;2022-08-23T11:04:04;28.55;31.10
47434;SHT31;33184;48.774;8.918;2022-08-23T11:09:48;29.08;30.32
47434;SHT31;33184;48.774;8.918;2022-08-23T11:15:17;29.47;30.27
47434;SHT31;33184;48.774;8.918;2022-08-23T11:32:14;29.43;29.59
47434;SHT31;33184;48.774;8.918;2022-08-23T11:37:58;30.59;28.58
47434;SHT31;33184;48.774;8.918;2022-08-23T11:43:32;31.16;27.59
47434;SHT31;33184;48.774;8.918;2022-08-23T11:54:23;31.91;26.14
47434;SHT31;33184;48.774;8.918;2022-08-23T12:11:01;32.10;25.25
47434;SHT31;33184;48.774;8.918;2022-08-23T12:21:48;32.05;25.32
47434;SHT31;33184;48.774;8.918;2022-08-23T12:43:36;31.95;24.51
47434;SHT31;33184;48.774;8.918;2022-08-23T12:48:57;31.70;25.17
47434;SHT31;33184;48.774;8.918;2022-08-23T12:54:21;30.38;26.41
47434;SHT31;33184;48.774;8.918;2022-08-23T13:05:36;32.05;24.85
47434;SHT31;33184;48.774;8.918;2022-08-23T13:10:57;33.60;22.96
47434;SHT31;33184;48.774;8.918;2022-08-23T13:16:41;33.73;22.48
47434;SHT31;33184;48.774;8.918;2022-08-23T13:38:30;33.84;21.96
47434;SHT31;33184;48.774;8.918;2022-08-23T13:43:51;33.12;22.43
47434;SHT31;33184;48.774;8.918;2022-08-23T13:49:19;33.74;22.21
47434;SHT31;33184;48.774;8.918;2022-08-23T13:54:41;33.82;23.66
47434;SHT31;33184;48.774;8.918;2022-08-23T14:00:03;34.72;21.70
47434;SHT31;33184;48.774;8.918;2022-08-23T14:05:29;34.63;21.52
47434;SHT31;33184;48.774;8.918;2022-08-23T14:10:50;34.79;22.15
47434;SHT31;33184;48.774;8.918;2022-08-23T14:16:17;34.19;22.00
47434;SHT31;33184;48.774;8.918;2022-08-23T14:21:39;33.87;22.36
47434;SHT31;33184;48.774;8.918;2022-08-23T14:26:59;34.93;21.35
47434;SHT31;33184;48.774;8.918;2022-08-23T14:32:20;35.07;21.02
47434;SHT31;33184;48.774;8.918;2022-08-23T14:37:41;35.27;20.27
47434;SHT31;33184;48.774;8.918;2022-08-23T14:43:03;34.59;21.26
47434;SHT31;33184;48.774;8.918;2022-08-23T14:48:24;35.04;21.88
47434;SHT31;33184;48.774;8.918;2022-08-23T14:53:44;34.02;22.02
47434;SHT31;33184;48.774;8.918;2022-08-23T14:59:05;33.42;22.53
47434;SHT31;33184;48.774;8.918;2022-08-23T15:04:26;32.96;22.79
47434;SHT31;33184;48.774;8.918;2022-08-23T15:09:51;33.50;22.73
47434;SHT31;33184;48.774;8.918;2022-08-23T15:15:16;33.40;22.41
47434;SHT31;33184;48.774;8.918;2022-08-23T15:20:38;33.78;22.07
47434;SHT31;33184;48.774;8.918;2022-08-23T15:25:58;33.43;23.14
47434;SHT31;33184;48.774;8.918;2022-08-23T15:31:19;32.95;22.57
47434;SHT31;33184;48.774;8.918;2022-08-23T15:36:40;31.26;23.78
47434;SHT31;33184;48.774;8.918;2022-08-23T15:42:01;31.05;24.03
47434;SHT31;33184;48.774;8.918;2022-08-23T15:47:27;30.66;24.60
47434;SHT31;33184;48.774;8.918;2022-08-23T15:52:48;30.48;25.00
47434;SHT31;33184;48.774;8.918;2022-08-23T15:58:14;30.66;24.82
47434;SHT31;33184;48.774;8.918;2022-08-23T16:03:35;31.08;25.17
47434;SHT31;33184;48.774;8.918;2022-08-23T16:08:58;30.98;25.23
47434;SHT31;33184;48.774;8.918;2022-08-23T16:14:18;30.71;25.48
47434;SHT31;33184;48.774;8.918;2022-08-23T16:19:39;31.13;25.77
47434;SHT31;33184;48.774;8.918;2022-08-23T16:25:00;31.10;25.20
47434;SHT31;33184;48.774;8.918;2022-08-23T16:30:20;31.18;25.86
47434;SHT31;33184;48.774;8.918;2022-08-23T16:35:41;30.71;25.99
47434;SHT31;33184;48.774;8.918;2022-08-23T16:41:02;30.47;26.42
47434;SHT31;33184;48.774;8.918;2022-08-23T16:46:23;30.15;26.76
47434;SHT31;33184;48.774;8.918;2022-08-23T16:51:44;29.83;27.13
47434;SHT31;33184;48.774;8.918;2022-08-23T16:57:05;29.70;27.47
47434;SHT31;33184;48.774;8.918;2022-08-23T17:02:29;29.54;27.91
47434;SHT31;33184;48.774;8.918;2022-08-23T17:07:50;29.38;28.26
47434;SHT31;33184;48.774;8.918;2022-08-23T17:13:13;29.03;29.17
47434;SHT31;33184;48.774;8.918;2022-08-23T17:18:34;28.81;29.50
47434;SHT31;33184;48.774;8.918;2022-08-23T17:23:55;28.55;29.71
47434;SHT31;33184;48.774;8.918;2022-08-23T17:29:16;28.40;29.99
47434;SHT31;33184;48.774;8.918;2022-08-23T17:34:36;28.12;30.79
47434;SHT31;33184;48.774;8.918;2022-08-23T17:39:58;27.90;32.08
47434;SHT31;33184;48.774;8.918;2022-08-23T17:45:19;27.89;32.18
47434;SHT31;33184;48.774;8.918;2022-08-23T17:50:42;27.93;32.57
47434;SHT31;33184;48.774;8.918;2022-08-23T17:56:03;27.94;32.58
47434;SHT31;33184;48.774;8.918;2022-08-23T18:01:23;27.92;32.95
47434;SHT31;33184;48.774;8.918;2022-08-23T18:06:45;27.77;33.17
47434;SHT31;33184;48.774;8.918;2022-08-23T18:12:05;27.70;33.44
47434;SHT31;33184;48.774;8.918;2022-08-23T18:17:27;27.52;33.91
47434;SHT31;33184;48.774;8.918;2022-08-23T18:22:48;27.43;34.38
47434;SHT31;33184;48.774;8.918;2022-08-23T18:28:09;27.31;34.56
47434;SHT31;33184;48.774;8.918;2022-08-23T18:33:30;27.15;34.85
47434;SHT31;33184;48.774;8.918;2022-08-23T18:38:51;27.00;35.32
47434;SHT31;33184;48.774;8.918;2022-08-23T18:44:11;26.92;35.57
47434;SHT31;33184;48.774;8.918;2022-08-23T18:49:34;26.74;36.02
47434;SHT31;33184;48.774;8.918;2022-08-23T18:54:54;26.54;36.79
47434;SHT31;33184;48.774;8.918;2022-08-23T19:00:15;26.32;37.09
47434;SHT31;33184;48.774;8.918;2022-08-23T19:05:36;26.06;37.50
47434;SHT31;33184;48.774;8.918;2022-08-23T19:10:57;25.95;37.90
47434;SHT31;33184;48.774;8.918;2022-08-23T19:16:19;25.66;38.25
47434;SHT31;33184;48.774;8.918;2022-08-23T19:21:41;25.49;39.20
47434;SHT31;33184;48.774;8.918;2022-08-23T19:27:01;25.27;39.63
47434;SHT31;33184;48.774;8.918;2022-08-23T19:32:22;25.08;39.90
47434;SHT31;33184;48.774;8.918;2022-08-23T19:37:43;24.80;41.31
47434;SHT31;33184;48.774;8.918;2022-08-23T19:43:03;24.81;41.08
47434;SHT31;33184;48.774;8.918;2022-08-23T19:48:24;24.64;41.82
47434;SHT31;33184;48.774;8.918;2022-08-23T19:53:45;24.49;42.07
47434;SHT31;33184;48.774;8.918;2022-08-23T19:59:30;24.22;42.55
47434;SHT31;33184;48.774;8.918;2022-08-23T20:04:52;24.09;43.34
47434;SHT31;33184;48.774;8.918;2022-08-23T20:10:13;23.73;44.30
47434;SHT31;33184;48.774;8.918;2022-08-23T20:15:34;23.44;44.68
47434;SHT31;33184;48.774;8.918;2022-08-23T20:20:54;23.12;45.33
47434;SHT31;33184;48.774;8.918;2022-08-23T20:26:15;22.94;46.36
47434;SHT31;33184;48.774;8.918;2022-08-23T20:31:39;22.80;46.76
47434;SHT31;33184;48.774;8.918;2022-08-23T20:37:05;22.63;47.48
47434;SHT31;33184;48.774;8.918;2022-08-23T20:42:26;22.55;47.54
47434;SHT31;33184;48.774;8.918;2022-08-23T20:47:46;22.38;47.43
47434;SHT31;33184;48.774;8.918;2022-08-23T20:53:07;22.52;47.62
47434;SHT31;33184;48.774;8.918;2022-08-23T20:58:31;22.25;48.51
47434;SHT31;33184;48.774;8.918;2022-08-23T21:03:52;21.84;48.69
47434;SHT31;33184;48.774;8.918;2022-08-23T21:09:15;21.77;48.96
47434;SHT31;33184;48.774;8.918;2022-08-23T21:14:38;21.70;49.32
47434;SHT31;33184;48.774;8.918;2022-08-23T21:19:58;21.57;49.89
47434;SHT31;33184;48.774;8.918;2022-08-23T21:25:19;21.49;48.93
47434;SHT31;33184;48.774;8.918;2022-08-23T21:30:40;21.46;49.29
47434;SHT31;33184;48.774;8.918;2022-08-23T21:36:01;21.50;49.97
47434;SHT31;33184;48.774;8.918;2022-08-23T21:41:32;21.40;50.04
47434;SHT31;33184;48.774;8.918;2022-08-23T21:46:53;21.32;49.84
47434;SHT31;33184;48.774;8.918;2022-08-23T21:52:14;21.26;50.26
47434;SHT31;33184;48.774;8.918;2022-08-23T21:57:35;21.23;50.43
47434;SHT31;33184;48.774;8.918;2022-08-23T22:02:56;21.17;50.73
47434;SHT31;33184;48.774;8.918;2022-08-23T22:08:17;21.05;50.87
47434;SHT31;33184;48.774;8.918;2022-08-23T22:13:38;20.99;51.09
47434;SHT31;33184;48.774;8.918;2022-08-23T22:18:59;20.89;50.76
47434;SHT31;33184;48.774;8.918;2022-08-23T22:24:20;20.67;52.16
47434;SHT31;33184;48.774;8.918;2022-08-23T22:29:40;20.22;52.78
47434;SHT31;33184;48.774;8.918;2022-08-23T22:35:01;20.09;53.30
47434;SHT31;33184;48.774;8.918;2022-08-23T22:40:22;20.04;54.59
47434;SHT31;33184;48.774;8.918;2022-08-23T22:45:50;19.81;54.95
47434;SHT31;33184;48.774;8.918;2022-08-23T22:51:14;19.60;55.50
47434;SHT31;33184;48.774;8.918;2022-08-23T22:56:41;19.45;55.79
47434;SHT31;33184;48.774;8.918;2022-08-23T23:02:02;19.50;55.18
47434;SHT31;33184;48.774;8.918;2022-08-23T23:07:23;19.62;54.80
47434;SHT31;33184;48.774;8.918;2022-08-23T23:13:02;19.73;55.42
47434;SHT31;33184;48.774;8.918;2022-08-23T23:31:48;19.56;56.12
47434;SHT31;33184;48.774;8.918;2022-08-23T23:37:09;19.53;56.04
47434;SHT31;33184;48.774;8.918;2022-08-23T23:42:30;19.34;56.40
47434;SHT31;33184;48.774;8.918;2022-08-23T23:47:51;19.22;56.95
47434;SHT31;33184;48.774;8.918;2022-08-23T23:53:11;19.26;56.76
47434;SHT31;33184;48.774;8.918;2022-08-23T23:58:32;18.95;57.63
